Time;durP1;ratioP1;P1;durP2;ratioP2;P2;SDS_P1;SDS_P2;PMS_P1;PMS_P2;Temp;Humidity;BMP_temperature;BMP_pressure;BME280_temperature;BME280_humidity;BME280_pressure;Samples;Min_cycle;Max_cycle;Signal;HPM_P1;HPM_P2
2022/06/18 00:00:17;;;;;;;;;15.50;13.75;;;;;26.74;42.24;101631.97;6184725;22;61241;-85
2022/06/18 00:02:43;;;;;;;;;12.75;12.00;;;;;26.74;41.72;101615.94;6185907;22;45245;-85
2022/06/18 00:05:10;;;;;;;;;15.25;13.50;;;;;26.79;42.17;101621.75;6185522;22;46250;-85
2022/06/18 00:07:47;;;;;;;;;14.00;13.00;;;;;26.78;42.30;101619.19;6185596;22;45770;-85
2022/06/18 00:10:19;;;;;;;;;16.25;15.75;;;;;26.76;42.41;101610.47;6185573;22;45382;-85
2022/06/18 00:15:32;;;;;;;;;12.00;11.50;;;;;26.76;41.79;101611.31;6189084;22;45717;-87
2022/06/18 00:17:58;;;;;;;;;11.75;11.75;;;;;26.75;41.65;101611.47;6186749;22;45730;-86
2022/06/18 00:20:26;;;;;;;;;11.50;11.00;;;;;26.74;41.53;101610.59;6212215;22;59821;-86
2022/06/18 00:22:54;;;;;;;;;16.00;13.00;;;;;26.69;41.92;101595.94;6186465;22;45671;-85
2022/06/18 00:25:32;;;;;;;;;11.75;10.50;;;;;26.72;42.01;101609.88;6185839;22;46320;-86
2022/06/18 00:27:58;;;;;;;;;16.75;14.50;;;;;26.64;42.03;101594.50;6185297;22;45277;-85
2022/06/18 00:30:25;;;;;;;;;15.50;13.00;;;;;26.64;41.88;101602.53;6185657;22;45363;-86
2022/06/18 00:32:51;;;;;;;;;14.00;13.75;;;;;26.65;41.68;101598.00;6185844;22;45246;-86
2022/06/18 00:35:17;;;;;;;;;13.00;12.75;;;;;26.63;41.75;101606.19;6212056;22;47087;-86
2022/06/18 00:37:43;;;;;;;;;11.50;11.00;;;;;26.61;42.25;101604.59;6212968;22;45762;-86
2022/06/18 00:40:13;;;;;;;;;10.25;9.50;;;;;26.61;41.33;101610.78;6186115;22;45375;-86
2022/06/18 00:42:39;;;;;;;;;16.00;13.50;;;;;26.57;42.21;101609.31;6211243;22;45401;-86
2022/06/18 00:45:05;;;;;;;;;14.75;12.00;;;;;26.50;42.81;101605.44;6185261;22;45890;-86
2022/06/18 00:47:46;;;;;;;;;12.00;12.00;;;;;26.50;41.69;101618.78;6185682;22;45770;-85
2022/06/18 00:50:22;;;;;;;;;11.25;10.00;;;;;26.49;42.38;101618.94;6186466;22;45252;-86
2022/06/18 00:52:59;;;;;;;;;13.75;11.50;;;;;26.46;40.99;101615.53;6185859;22;45466;-85
2022/06/18 00:55:33;;;;;;;;;9.75;9.75;;;;;26.46;41.04;101612.88;6212064;22;45255;-86
2022/06/18 00:58:03;;;;;;;;;13.25;11.50;;;;;26.49;42.21;101613.63;6211621;22;45325;-86
2022/06/18 01:00:39;;;;;;;;;9.50;9.50;;;;;26.48;41.20;101617.25;6211510;22;45443;-86
2022/06/18 01:03:05;;;;;;;;;11.75;11.00;;;;;26.48;41.10;101614.56;6187127;22;45996;-86
2022/06/18 01:05:38;;;;;;;;;12.75;10.00;;;;;26.49;40.61;101613.63;6184510;22;46959;-86
2022/06/18 01:08:11;;;;;;;;;12.25;11.00;;;;;26.48;41.12;101623.41;6212908;22;45672;-85
2022/06/18 01:10:41;;;;;;;;;10.50;10.50;;;;;26.41;41.13;101612.41;6186844;22;45236;-85
2022/06/18 01:13:10;;;;;;;;;11.00;10.00;;;;;26.42;41.26;101618.59;6185254;22;45275;-85
2022/06/18 01:15:37;;;;;;;;;9.00;9.00;;;;;26.40;41.47;101612.53;6184964;22;46123;-86
2022/06/18 01:18:04;;;;;;;;;10.25;8.75;;;;;26.34;41.20;101597.88;6210751;22;45261;-85
2022/06/18 01:20:32;;;;;;;;;10.00;9.50;;;;;26.38;41.13;101615.34;6185169;22;45448;-85
2022/06/18 01:23:16;;;;;;;;;11.00;10.75;;;;;26.37;41.93;101615.44;6185227;22;45446;-86
2022/06/18 01:25:42;;;;;;;;;10.50;10.50;;;;;26.35;43.08;101606.72;6212283;22;45465;-85
2022/06/18 01:28:09;;;;;;;;;11.50;11.50;;;;;26.29;42.77;101607.25;6184250;22;55123;-86
2022/06/18 01:30:36;;;;;;;;;11.75;11.75;;;;;26.29;44.10;101615.25;6210727;22;45272;-86
2022/06/18 01:33:06;;;;;;;;;11.50;11.50;;;;;26.22;43.29;101609.56;6185618;22;45334;-86
2022/06/18 01:35:31;;;;;;;;;12.25;10.75;;;;;26.06;43.43;101594.81;6185225;22;46434;-86
2022/06/18 01:37:57;;;;;;;;;13.00;11.75;;;;;26.10;43.46;101591.91;6184821;22;45285;-86
2022/06/18 01:40:31;;;;;;;;;11.75;11.00;;;;;26.05;43.55;101606.44;6212103;22;45326;-85
2022/06/18 01:42:58;;;;;;;;;9.25;9.00;;;;;25.95;44.08;101583.31;6185375;22;45392;-86
2022/06/18 01:45:30;;;;;;;;;11.25;11.00;;;;;25.94;44.77;101589.59;6184572;22;46918;-85
2022/06/18 01:48:09;;;;;;;;;10.00;9.75;;;;;25.89;44.09;101595.25;6184980;22;45272;-86
2022/06/18 01:50:44;;;;;;;;;12.25;9.75;;;;;25.81;45.24;101587.03;6185067;22;45289;-86
2022/06/18 01:53:16;;;;;;;;;10.00;10.00;;;;;25.78;44.73;101579.28;6185079;22;45459;-85
2022/06/18 01:55:45;;;;;;;;;10.00;9.75;;;;;25.75;44.20;101576.88;6185174;22;46532;-85
2022/06/18 01:58:17;;;;;;;;;11.50;11.00;;;;;25.77;43.94;101580.28;6185317;22;45312;-87
2022/06/18 02:00:45;;;;;;;;;12.50;11.00;;;;;25.67;45.14;101572.16;6185819;22;45342;-86
2022/06/18 02:03:10;;;;;;;;;12.00;11.50;;;;;25.70;45.03;101577.22;6213446;22;45391;-86
2022/06/18 02:05:37;;;;;;;;;11.75;11.00;;;;;25.67;44.98;101567.69;6211297;22;64203;-86
2022/06/18 02:08:04;;;;;;;;;15.00;13.50;;;;;25.71;43.80;101573.63;6184299;22;45711;-86
2022/06/18 02:10:37;;;;;;;;;15.75;12.25;;;;;25.76;44.71;101576.75;6184844;22;45244;-85
2022/06/18 02:13:03;;;;;;;;;16.00;12.00;;;;;25.76;44.13;101587.44;6212073;22;45149;-85
2022/06/18 02:15:32;;;;;;;;;17.25;14.25;;;;;25.75;44.45;101584.88;6185139;22;45284;-86
2022/06/18 02:18:02;;;;;;;;;14.50;11.50;;;;;25.70;44.21;101566.56;6184976;22;45786;-86
2022/06/18 02:20:29;;;;;;;;;12.75;12.75;;;;;25.78;44.81;101581.94;6212420;22;45297;-85
2022/06/18 02:22:56;;;;;;;;;14.00;14.00;;;;;25.73;44.85;101579.66;6186313;22;45645;-86
2022/06/18 02:25:24;;;;;;;;;16.50;14.75;;;;;25.67;44.75;101578.34;6185169;22;46478;-85
2022/06/18 02:28:02;;;;;;;;;15.00;15.00;;;;;25.68;44.88;101577.34;6186002;22;45790;-84
2022/06/18 02:30:30;;;;;;;;;11.75;11.25;;;;;25.58;44.08;101564.91;6185995;22;45362;-84
2022/06/18 02:33:16;;;;;;;;;14.25;12.00;;;;;25.65;44.50;101572.28;6186270;22;45312;-85
2022/06/18 02:35:41;;;;;;;;;14.75;12.00;;;;;25.61;44.40;101560.19;6179582;23;45595;-85
2022/06/18 02:38:15;;;;;;;;;15.00;14.25;;;;;25.62;45.29;101556.53;6180237;23;45385;-85
2022/06/18 02:40:41;;;;;;;;;13.00;12.00;;;;;25.54;44.84;101542.97;6179242;22;45370;-85
2022/06/18 02:43:07;;;;;;;;;13.00;12.00;;;;;25.53;45.07;101546.59;6179578;23;45368;-86
2022/06/18 02:45:33;;;;;;;;;15.50;13.25;;;;;25.52;45.67;101539.59;6181979;23;46048;-85
2022/06/18 02:47:59;;;;;;;;;14.50;12.00;;;;;25.46;45.95;101538.25;6155787;23;45364;-85
2022/06/18 02:50:28;;;;;;;;;13.25;11.50;;;;;25.33;45.79;101520.69;6156002;23;45316;-85
2022/06/18 02:52:58;;;;;;;;;12.75;12.75;;;;;25.35;45.34;101532.91;6182149;23;45761;-85
2022/06/18 02:55:43;;;;;;;;;17.25;13.00;;;;;25.33;45.63;101528.69;6178426;23;46418;-86
2022/06/18 02:58:21;;;;;;;;;13.50;12.00;;;;;25.30;45.67;101525.28;6153950;23;45768;-85
2022/06/18 03:00:53;;;;;;;;;14.75;13.75;;;;;25.26;46.98;101521.19;6182073;23;45291;-85
2022/06/18 03:03:19;;;;;;;;;14.50;13.25;;;;;25.23;46.76;101517.88;6180107;23;45342;-85
2022/06/18 03:05:46;;;;;;;;;12.75;12.75;;;;;25.25;46.33;101521.28;6180363;23;45598;-85
2022/06/18 03:08:11;;;;;;;;;14.50;13.75;;;;;25.24;46.30;101515.13;6179758;23;45275;-86
2022/06/18 03:13:21;;;;;;;;;14.50;11.50;;;;;25.20;47.38;101507.44;6191082;22;45313;-85
2022/06/18 03:15:48;;;;;;;;;18.00;14.00;;;;;25.17;47.25;101500.56;6185989;22;45442;-85
2022/06/18 03:18:16;;;;;;;;;18.00;13.75;;;;;25.17;47.42;101494.38;6187169;22;46311;-85
2022/06/18 03:20:44;;;;;;;;;14.00;12.25;;;;;25.11;47.62;101491.22;6161063;22;45316;-85
2022/06/18 03:23:14;;;;;;;;;14.75;14.75;;;;;25.04;47.98;101476.69;6212089;22;45326;-85
2022/06/18 03:25:39;;;;;;;;;16.50;14.75;;;;;25.01;47.12;101481.41;6210277;22;46591;-86
2022/06/18 03:28:04;;;;;;;;;15.00;14.25;;;;;25.01;48.05;101486.75;6211685;22;73113;-85
2022/06/18 03:30:30;;;;;;;;;14.25;13.25;;;;;24.97;47.19;101482.63;6185088;22;60279;-85
2022/06/18 03:32:55;;;;;;;;;14.25;13.25;;;;;24.95;47.23;101480.09;6214068;22;62838;-85
2022/06/18 03:35:21;;;;;;;;;18.00;15.75;;;;;24.98;47.69;101482.53;6210583;22;75734;-87
2022/06/18 03:37:46;;;;;;;;;17.75;15.25;;;;;24.93;47.24;101484.69;6212627;22;45394;-86
2022/06/18 03:40:12;;;;;;;;;15.75;13.75;;;;;24.92;47.60;101475.84;6213383;22;64888;-86
2022/06/18 03:42:37;;;;;;;;;17.25;13.25;;;;;24.90;48.10;101474.25;6186083;22;45492;-86
2022/06/18 03:45:03;;;;;;;;;15.50;14.50;;;;;24.79;47.62;101464.44;6187471;22;66719;-85
2022/06/18 03:47:29;;;;;;;;;19.00;16.25;;;;;24.81;48.03;101475.81;6212488;22;45295;-85
2022/06/18 03:49:54;;;;;;;;;17.00;13.75;;;;;24.74;48.23;101458.66;6186135;22;48907;-85
2022/06/18 03:52:19;;;;;;;;;15.75;12.25;;;;;24.77;47.92;101478.84;6210703;22;63421;-85
2022/06/18 03:54:45;;;;;;;;;13.75;13.75;;;;;24.75;47.93;101484.28;6185673;22;68901;-85
2022/06/18 03:57:17;;;;;;;;;12.50;12.50;;;;;24.71;47.85;101473.03;6185788;22;45796;-85
2022/06/18 03:59:43;;;;;;;;;14.00;13.50;;;;;24.73;48.40;101475.56;6213780;22;45210;-85
2022/06/18 04:02:09;;;;;;;;;15.25;14.25;;;;;24.72;48.54;101480.06;6161807;23;45257;-86
2022/06/18 04:04:34;;;;;;;;;13.50;13.50;;;;;24.75;48.53;101478.13;6155649;23;46190;-85
2022/06/18 04:07:00;;;;;;;;;12.50;12.50;;;;;24.76;47.93;101482.47;6181682;23;45384;-84
2022/06/18 04:09:25;;;;;;;;;13.00;12.25;;;;;24.73;48.37;101467.59;6155833;23;45749;-86
2022/06/18 04:11:50;;;;;;;;;13.25;13.25;;;;;24.76;47.57;101478.00;6154994;23;59451;-86
2022/06/18 04:14:16;;;;;;;;;12.00;11.00;;;;;24.73;47.58;101462.25;6182130;23;69618;-86
2022/06/18 04:16:42;;;;;;;;;10.75;10.75;;;;;24.79;46.99;101458.28;6183807;23;45146;-85
2022/06/18 04:19:09;;;;;;;;;15.00;12.00;;;;;24.85;47.07;101461.31;6130562;23;61877;-85
2022/06/18 04:21:34;;;;;;;;;12.25;11.50;;;;;24.81;47.44;101451.84;6157530;23;45360;-85
2022/06/18 04:23:59;;;;;;;;;10.50;10.50;;;;;24.84;47.28;101456.13;6182651;23;70684;-86
2022/06/18 04:26:25;;;;;;;;;12.50;11.50;;;;;24.88;47.12;101457.56;6182244;23;61653;-85
2022/06/18 04:28:50;;;;;;;;;12.75;11.50;;;;;24.89;46.77;101460.09;6156371;23;65664;-85
2022/06/18 04:31:16;;;;;;;;;15.00;12.75;;;;;24.91;46.67;101458.16;6182212;23;58452;-86
2022/06/18 04:33:41;;;;;;;;;11.75;11.75;;;;;24.93;46.46;101452.72;6183000;23;72638;-85
2022/06/18 04:36:38;;;;;;;;;14.25;12.25;;;;;25.04;46.32;101463.38;6130700;23;71015;-86
2022/06/18 04:39:04;;;;;;;;;13.00;12.00;;;;;25.06;45.93;101468.59;6184144;23;45457;-86
2022/06/18 04:41:29;;;;;;;;;13.75;12.00;;;;;25.04;45.78;101471.38;6182903;23;45331;-85
2022/06/18 04:43:55;;;;;;;;;14.00;11.75;;;;;25.00;45.68;101463.72;6154796;23;48182;-86
2022/06/18 04:46:21;;;;;;;;;14.25;12.00;;;;;25.04;45.48;101470.53;6155015;23;45778;-85
2022/06/18 04:48:46;;;;;;;;;12.25;11.75;;;;;25.05;45.47;101467.72;6159084;23;45455;-85
2022/06/18 04:51:11;;;;;;;;;11.75;11.50;;;;;25.08;45.75;101459.50;6183097;23;45308;-85
2022/06/18 04:53:37;;;;;;;;;14.00;12.00;;;;;25.07;45.89;101460.47;6154846;23;68072;-86
2022/06/18 04:56:02;;;;;;;;;12.25;12.25;;;;;25.16;45.73;101466.03;6155546;23;66251;-85
2022/06/18 04:58:27;;;;;;;;;14.00;12.50;;;;;25.21;45.33;101470.03;6182722;23;45343;-85
2022/06/18 05:00:53;;;;;;;;;11.50;8.75;;;;;25.24;45.38;101475.16;6190321;22;57211;-85
2022/06/18 05:03:23;;;;;;;;;12.00;11.25;;;;;25.31;45.88;101475.50;6210081;22;62645;-84
2022/06/18 05:05:48;;;;;;;;;18.00;15.00;;;;;25.27;45.24;101466.91;6186604;22;45660;-84
2022/06/18 05:08:13;;;;;;;;;15.00;13.00;;;;;25.33;45.20;101464.72;6212639;22;45409;-85
2022/06/18 05:10:39;;;;;;;;;14.50;12.25;;;;;25.39;45.82;101469.56;6212304;22;45284;-85
2022/06/18 05:13:06;;;;;;;;;14.50;13.75;;;;;25.33;45.52;101459.41;6186949;22;45375;-85
2022/06/18 05:15:32;;;;;;;;;13.75;12.00;;;;;25.42;45.41;101466.66;6210576;22;45237;-84
2022/06/18 05:17:58;;;;;;;;;14.00;13.75;;;;;25.44;45.48;101465.53;6160438;22;45281;-85
2022/06/18 05:20:24;;;;;;;;;12.00;11.00;;;;;25.43;45.54;101461.19;6211017;22;63507;-85
2022/06/18 05:22:49;;;;;;;;;15.25;13.75;;;;;25.47;45.91;101456.47;6209880;22;46045;-85
2022/06/18 05:25:15;;;;;;;;;12.50;11.25;;;;;25.50;45.72;101457.06;6213584;22;45290;-85
2022/06/18 05:27:41;;;;;;;;;17.50;14.50;;;;;25.51;45.63;101444.59;6213050;22;45386;-86
2022/06/18 05:30:10;;;;;;;;;16.00;14.00;;;;;25.57;45.30;101451.25;6212551;22;45399;-85
2022/06/18 05:32:36;;;;;;;;;13.50;12.50;;;;;25.64;45.72;101458.59;6185985;22;45617;-85
2022/06/18 05:35:01;;;;;;;;;12.50;12.00;;;;;25.66;45.73;101456.66;6185808;22;45213;-85
2022/06/18 05:37:28;;;;;;;;;14.00;12.00;;;;;25.71;45.76;101453.63;6185046;22;45336;-85
2022/06/18 05:39:54;;;;;;;;;12.00;11.50;;;;;25.71;45.90;101439.47;6185621;22;45275;-86
2022/06/18 05:42:21;;;;;;;;;16.00;14.25;;;;;25.78;45.34;101437.97;6183073;22;77824;-86
2022/06/18 05:44:47;;;;;;;;;12.75;11.00;;;;;25.87;45.43;101448.75;6211618;22;45780;-84
2022/06/18 05:47:15;;;;;;;;;14.25;12.75;;;;;25.93;46.97;101444.75;6184726;22;45473;-85
2022/06/18 05:49:40;;;;;;;;;14.00;11.00;;;;;25.91;45.58;101429.78;6211248;22;45208;-85
2022/06/18 05:52:06;;;;;;;;;16.00;13.00;;;;;25.95;45.12;101433.94;6185139;22;45325;-85
2022/06/18 05:54:32;;;;;;;;;16.00;13.00;;;;;26.03;45.42;101436.81;6183885;22;45278;-84
2022/06/18 05:56:57;;;;;;;;;12.75;12.25;;;;;26.07;45.11;101431.06;6185022;22;45239;-85
2022/06/18 05:59:23;;;;;;;;;12.25;11.50;;;;;26.10;44.89;101437.16;6213761;22;61108;-85
2022/06/18 06:01:48;;;;;;;;;15.00;12.25;;;;;26.13;44.39;101432.38;6210985;22;46293;-85
2022/06/18 06:04:16;;;;;;;;;16.75;13.50;;;;;26.20;44.19;101438.91;6184066;22;64520;-85
2022/06/18 06:06:41;;;;;;;;;9.75;9.25;;;;;26.19;44.24;101421.22;6211671;22;45277;-84
2022/06/18 06:09:11;;;;;;;;;18.00;15.00;;;;;26.30;44.95;101422.97;6209384;22;60091;-86
2022/06/18 06:11:38;;;;;;;;;12.50;12.00;;;;;26.36;45.21;101430.47;6210888;22;45288;-85
2022/06/18 06:14:03;;;;;;;;;17.75;14.25;;;;;26.33;45.55;101424.53;6211168;22;45732;-85
2022/06/18 06:16:29;;;;;;;;;15.75;11.75;;;;;26.44;44.71;101429.78;6185450;22;45269;-86
2022/06/18 06:18:54;;;;;;;;;16.25;14.25;;;;;26.45;44.30;101416.31;6209623;22;45317;-85
2022/06/18 06:21:20;;;;;;;;;13.75;12.25;;;;;26.56;44.05;101428.75;6185184;22;45318;-85
2022/06/18 06:23:45;;;;;;;;;11.50;11.50;;;;;26.64;44.23;101420.94;6214228;22;45524;-90
2022/06/18 06:26:29;;;;;;;;;15.25;13.75;;;;;26.70;43.84;101424.06;6210481;22;45471;-89
2022/06/18 06:28:54;;;;;;;;;13.00;12.00;;;;;26.75;43.84;101416.53;6211131;22;45444;-90
2022/06/18 06:31:20;;;;;;;;;16.25;15.50;;;;;26.78;43.67;101418.91;6210967;22;46353;-86
2022/06/18 06:33:45;;;;;;;;;14.50;13.00;;;;;26.85;43.24;101420.06;6183232;22;45746;-86
2022/06/18 06:36:11;;;;;;;;;14.00;12.50;;;;;26.95;43.51;101430.78;6183862;22;45272;-86
2022/06/18 06:38:38;;;;;;;;;13.25;12.00;;;;;27.01;42.91;101432.94;6184945;22;45398;-86
2022/06/18 06:41:06;;;;;;;;;12.00;10.25;;;;;27.07;42.35;101426.19;6183507;22;46227;-88
2022/06/18 06:43:31;;;;;;;;;12.75;12.50;;;;;27.10;43.10;101425.91;6185632;22;45868;-85
2022/06/18 06:45:56;;;;;;;;;13.50;12.75;;;;;27.18;42.09;101426.94;6210431;22;45230;-89
2022/06/18 06:48:22;;;;;;;;;14.50;13.00;;;;;27.32;42.01;101433.78;6211858;22;45454;-94
2022/06/18 06:50:48;;;;;;;;;21.50;14.75;;;;;27.36;42.42;101429.00;6209544;22;47282;-89
2022/06/18 06:53:13;;;;;;;;;15.75;15.50;;;;;27.38;42.05;101425.19;6188994;22;45241;-90
2022/06/18 06:58:23;;;;;;;;;13.00;12.50;;;;;27.54;41.71;101434.50;6188833;22;45201;-88
2022/06/18 07:00:52;;;;;;;;;21.50;14.25;;;;;27.60;41.52;101440.16;6210585;22;47289;-88
2022/06/18 07:03:24;;;;;;;;;19.50;14.75;;;;;27.63;41.03;101435.50;6184848;22;45817;-87
2022/06/18 07:05:50;;;;;;;;;13.00;12.25;;;;;27.72;41.01;101440.03;6187160;22;45315;-88
2022/06/18 07:08:25;;;;;;;;;13.00;11.50;;;;;27.72;41.32;101435.50;6186128;22;45463;-89
2022/06/18 07:10:51;;;;;;;;;14.00;10.25;;;;;27.77;40.82;101419.06;6186061;22;45307;-87
2022/06/18 07:13:17;;;;;;;;;13.50;12.25;;;;;27.90;41.12;101426.84;6212230;22;45279;-86
2022/06/18 07:15:43;;;;;;;;;14.00;14.00;;;;;27.92;40.74;101424.88;6212650;22;45335;-87
2022/06/18 07:18:15;;;;;;;;;14.25;13.00;;;;;28.02;41.38;101427.53;6185535;22;45304;-86
2022/06/18 07:20:42;;;;;;;;;13.50;11.25;;;;;28.03;41.22;101413.16;6185186;22;45340;-85
2022/06/18 07:23:08;;;;;;;;;12.50;10.50;;;;;28.13;40.48;101422.84;6216011;22;45301;-87
2022/06/18 07:25:33;;;;;;;;;15.75;13.00;;;;;28.17;40.36;101415.38;6161889;22;45369;-87
2022/06/18 07:27:59;;;;;;;;;16.50;13.25;;;;;28.28;39.74;101423.25;6212479;22;57875;-87
2022/06/18 07:30:24;;;;;;;;;12.50;11.25;;;;;28.34;40.29;101416.47;6212507;22;45761;-88
2022/06/18 07:32:49;;;;;;;;;14.75;12.75;;;;;28.48;39.79;101433.94;6213011;22;45363;-87
2022/06/18 07:35:21;;;;;;;;;12.75;12.75;;;;;28.50;39.76;101434.63;6187658;22;45334;-90
2022/06/18 07:37:47;;;;;;;;;11.75;10.75;;;;;28.51;39.54;101412.22;6186858;22;45338;-89
2022/06/18 07:40:13;;;;;;;;;11.50;11.50;;;;;28.61;39.77;101422.94;6212378;22;47054;-87
2022/06/18 07:42:39;;;;;;;;;13.25;12.75;;;;;28.63;39.21;101413.75;6210546;22;45323;-88
2022/06/18 07:45:08;;;;;;;;;16.50;11.00;;;;;28.75;39.25;101422.44;6184079;22;58616;-86
2022/06/18 07:47:34;;;;;;;;;15.50;14.00;;;;;28.83;38.95;101421.75;6211239;22;45234;-88
2022/06/18 07:50:02;;;;;;;;;16.25;13.00;;;;;28.89;39.32;101416.63;6185310;22;45515;-87
2022/06/18 07:52:27;;;;;;;;;13.50;12.00;;;;;28.97;39.02;101415.88;6185319;22;45763;-86
2022/06/18 07:54:52;;;;;;;;;13.50;11.75;;;;;29.03;38.80;101415.31;6185370;22;45265;-85
2022/06/18 07:57:18;;;;;;;;;13.50;13.25;;;;;29.05;38.08;101402.59;6209733;22;66342;-86
2022/06/18 07:59:43;;;;;;;;;14.75;12.25;;;;;29.09;38.01;101401.28;6182579;22;73994;-85
2022/06/18 08:02:11;;;;;;;;;11.00;11.00;;;;;29.15;36.00;101399.88;6212332;22;66648;-83
2022/06/18 08:04:36;;;;;;;;;11.00;10.50;;;;;29.20;34.64;101399.41;6210286;22;51597;-87
2022/06/18 08:07:01;;;;;;;;;10.00;10.00;;;;;29.25;34.30;101389.09;6212914;22;46029;-86
2022/06/18 08:09:27;;;;;;;;;8.00;8.00;;;;;29.36;35.74;101388.03;6185447;22;46896;-88
2022/06/18 08:11:53;;;;;;;;;11.50;11.00;;;;;29.47;35.01;101387.81;6186770;22;45262;-87
2022/06/18 08:14:18;;;;;;;;;9.50;9.00;;;;;29.59;35.68;101391.97;6185213;22;45214;-87
2022/06/18 08:16:44;;;;;;;;;12.50;10.75;;;;;29.65;35.18;101383.28;6185866;22;45382;-87
2022/06/18 08:19:20;;;;;;;;;13.00;11.50;;;;;29.75;34.28;101379.72;6186436;22;45239;-87
2022/06/18 08:21:45;;;;;;;;;15.75;11.75;;;;;29.80;33.37;101375.56;6186548;22;45393;-86
2022/06/18 08:24:14;;;;;;;;;9.00;9.00;;;;;29.93;33.93;101375.19;6210134;22;51100;-87
2022/06/18 08:26:40;;;;;;;;;10.50;9.00;;;;;30.00;33.12;101368.19;6185945;22;45275;-86
2022/06/18 08:29:07;;;;;;;;;12.00;10.50;;;;;30.13;33.39;101367.78;6159119;22;47532;-87
2022/06/18 08:31:32;;;;;;;;;10.75;10.50;;;;;30.26;33.00;101381.63;6184507;22;45333;-83
2022/06/18 08:33:58;;;;;;;;;9.50;9.25;;;;;30.29;34.15;101362.53;6211698;22;58915;-84
2022/06/18 08:36:24;;;;;;;;;11.75;9.50;;;;;30.35;33.30;101358.38;6211364;22;53909;-83
2022/06/18 08:38:50;;;;;;;;;10.00;10.00;;;;;30.48;32.73;101360.63;6185552;22;45292;-83
2022/06/18 08:41:31;;;;;;;;;11.75;9.25;;;;;30.58;32.43;101361.34;6211830;22;45413;-84
2022/06/18 08:44:05;;;;;;;;;13.00;12.00;;;;;30.71;32.89;101360.06;6211846;22;45271;-83
2022/06/18 08:46:51;;;;;;;;;15.00;10.00;;;;;30.72;31.42;101353.69;6212716;22;45291;-84
2022/06/18 08:49:20;;;;;;;;;12.00;10.25;;;;;30.79;31.58;101352.03;6211613;22;47200;-83
2022/06/18 08:52:03;;;;;;;;;11.00;11.00;;;;;30.85;31.61;101340.63;6184929;22;45821;-83
2022/06/18 08:55:04;;;;;;;;;11.25;11.25;;;;;30.93;30.46;101340.69;6185667;22;45339;-83
2022/06/18 08:57:37;;;;;;;;;10.25;10.25;;;;;30.99;31.95;101336.50;6090062;23;45412;-83
2022/06/18 09:00:09;;;;;;;;;12.25;9.75;;;;;31.14;31.33;101336.72;6065156;23;46378;-85
2022/06/18 09:02:56;;;;;;;;;12.75;12.75;;;;;31.22;30.95;101340.25;6089791;23;45715;-84
2022/06/18 09:05:43;;;;;;;;;17.25;12.50;;;;;31.35;31.91;101330.84;6065453;23;45377;-83
2022/06/18 09:08:35;;;;;;;;;12.00;12.00;;;;;31.43;31.49;101326.31;6091356;23;45543;-84
2022/06/18 09:11:22;;;;;;;;;16.00;12.00;;;;;31.55;31.51;101328.72;6065659;23;45426;-85
2022/06/18 09:13:59;;;;;;;;;13.25;10.75;;;;;31.61;30.72;101312.75;6090783;23;45464;-85
2022/06/18 09:16:34;;;;;;;;;12.25;12.25;;;;;31.71;31.62;101315.25;6070910;23;45371;-85
2022/06/18 09:19:01;;;;;;;;;12.25;12.25;;;;;31.72;29.59;101313.41;6073755;23;45226;-85
2022/06/18 09:21:34;;;;;;;;;13.50;10.00;;;;;31.83;29.92;101315.75;6076308;23;45323;-83
2022/06/18 09:24:04;;;;;;;;;12.25;11.00;;;;;31.91;30.59;101317.56;6074039;23;45376;-84
2022/06/18 09:26:35;;;;;;;;;11.50;10.00;;;;;31.97;29.58;101301.59;6095168;23;45236;-84
2022/06/18 09:29:45;;;;;;;;;13.00;13.00;;;;;32.13;28.38;101308.84;6074880;23;45335;-85
2022/06/18 09:32:22;;;;;;;;;10.50;10.25;;;;;32.29;28.83;101302.53;6186946;22;45476;-85
2022/06/18 09:35:13;;;;;;;;;12.25;10.00;;;;;32.46;29.67;101294.41;6192945;22;45364;-84
2022/06/18 09:37:45;;;;;;;;;10.75;10.25;;;;;32.62;29.18;101296.22;6097976;23;45397;-85
2022/06/18 09:40:17;;;;;;;;;12.25;10.50;;;;;32.68;28.70;101276.66;6071545;23;45286;-84
2022/06/18 09:42:49;;;;;;;;;10.00;9.50;;;;;32.77;26.77;101292.59;6069392;23;47073;-84
2022/06/18 09:45:20;;;;;;;;;8.25;7.00;;;;;32.89;26.27;101287.63;6046261;23;45813;-85
2022/06/18 09:47:47;;;;;;;;;9.25;9.25;;;;;33.01;27.37;101273.75;6068936;23;45426;-84
2022/06/18 09:50:25;;;;;;;;;17.50;9.25;;;;;33.10;27.56;101265.41;6072641;23;45450;-85
2022/06/18 09:52:58;;;;;;;;;10.50;8.75;;;;;33.20;26.83;101262.50;6066871;23;46326;-84
2022/06/18 09:55:33;;;;;;;;;9.25;7.00;;;;;33.35;26.16;101259.84;6065595;23;45295;-84
2022/06/18 09:57:58;;;;;;;;;12.25;10.00;;;;;33.47;26.11;101260.25;6065565;23;45286;-84
2022/06/18 10:00:25;;;;;;;;;14.00;10.00;;;;;33.60;26.75;101252.38;6088812;23;65353;-84
2022/06/18 10:03:05;;;;;;;;;7.75;7.75;;;;;33.69;25.42;101250.44;6065659;23;45289;-84
2022/06/18 10:08:26;;;;;;;;;10.00;6.75;;;;;33.88;23.92;101246.38;6069182;23;45354;-84
2022/06/18 10:10:54;;;;;;;;;8.75;8.75;;;;;33.97;23.12;101242.53;6088757;23;58262;-84
2022/06/18 10:13:25;;;;;;;;;10.25;8.00;;;;;34.07;24.30;101248.50;6065209;23;46207;-84
2022/06/18 10:15:52;;;;;;;;;10.00;7.75;;;;;34.16;24.01;101241.16;6211804;22;45826;-84
2022/06/18 10:18:33;;;;;;;;;9.00;7.75;;;;;34.33;23.59;101244.53;6185287;22;45304;-84
2022/06/18 10:21:17;;;;;;;;;10.25;8.25;;;;;34.43;23.41;101238.81;6184631;22;45538;-83
2022/06/18 10:24:02;;;;;;;;;9.00;7.00;;;;;34.52;22.15;101237.66;6184086;22;46537;-84
2022/06/18 10:26:36;;;;;;;;;6.50;6.00;;;;;34.59;22.61;101226.94;6184624;22;45301;-84
2022/06/18 10:29:07;;;;;;;;;7.25;6.75;;;;;34.66;22.06;101227.84;6211439;22;45271;-84
2022/06/18 10:31:57;;;;;;;;;7.00;7.00;;;;;34.82;23.17;101224.91;6211315;22;45279;-84
2022/06/18 10:34:28;;;;;;;;;8.50;6.25;;;;;34.97;23.61;101218.59;6211228;22;45539;-85
2022/06/18 10:37:15;;;;;;;;;9.75;9.00;;;;;35.14;23.68;101214.63;6184966;22;45705;-85
2022/06/18 10:39:47;;;;;;;;;10.00;8.50;;;;;35.21;22.18;101206.56;6184536;22;45373;-85
2022/06/18 10:42:22;;;;;;;;;12.00;10.00;;;;;35.38;21.94;101205.22;6213070;22;45320;-84
2022/06/18 10:44:56;;;;;;;;;11.00;11.00;;;;;35.50;22.03;101204.72;6212296;22;46172;-84
2022/06/18 10:47:22;;;;;;;;;10.25;8.75;;;;;35.63;21.76;101202.09;6212377;22;45714;-84
2022/06/18 10:49:59;;;;;;;;;12.50;10.50;;;;;35.76;21.76;101188.66;6211536;22;45554;-84
2022/06/18 10:52:25;;;;;;;;;19.75;18.75;;;;;35.94;22.29;101193.53;6210980;22;45419;-84
2022/06/18 10:55:03;;;;;;;;;17.50;16.00;;;;;36.08;24.24;101193.59;6211755;22;45300;-84
2022/06/18 10:57:28;;;;;;;;;14.50;11.00;;;;;36.25;20.97;101194.94;6186005;22;45793;-84
2022/06/18 10:59:54;;;;;;;;;21.75;21.25;;;;;36.32;22.41;101187.66;6212353;22;45312;-85
2022/06/18 11:02:25;;;;;;;;;10.25;9.25;;;;;36.49;22.65;101201.66;6211324;22;45529;-84
2022/06/18 11:04:57;;;;;;;;;9.25;9.00;;;;;36.66;21.92;101185.88;6185448;22;46109;-84
2022/06/18 11:07:26;;;;;;;;;10.00;8.00;;;;;36.67;22.35;101168.59;6185605;22;45268;-84
2022/06/18 11:09:57;;;;;;;;;9.75;9.00;;;;;36.87;22.82;101179.47;6186051;22;45343;-84
2022/06/18 11:12:30;;;;;;;;;11.50;9.50;;;;;36.98;21.39;101170.69;6186003;22;45556;-84
2022/06/18 11:14:55;;;;;;;;;10.00;8.00;;;;;37.22;21.62;101170.28;6212725;22;45331;-84
2022/06/18 11:17:29;;;;;;;;;10.00;9.00;;;;;37.44;21.11;101157.28;6212275;22;45285;-85
2022/06/18 11:20:25;;;;;;;;;13.25;9.75;;;;;37.65;21.00;101164.38;6211482;22;45374;-84
2022/06/18 11:22:53;;;;;;;;;8.75;8.75;;;;;37.98;20.49;101158.81;6212059;22;45533;-84
2022/06/18 11:25:31;;;;;;;;;8.00;8.00;;;;;38.30;21.63;101156.16;6186013;22;46166;-84
2022/06/18 11:28:01;;;;;;;;;11.00;9.00;;;;;38.63;20.17;101152.41;6212243;22;45337;-84
2022/06/18 11:30:47;;;;;;;;;12.75;9.00;;;;;39.17;21.08;101145.47;6186128;22;45437;-85
2022/06/18 11:33:30;;;;;;;;;8.50;8.50;;;;;41.08;19.36;101155.09;6185686;22;45541;-84